sensor_id;sensor_type;location;lat;lon;timestamp;P1;durP1;ratioP1;P2;durP2;ratioP2
9712;SDS011;4895;50.926;6.870;2023-02-13T00:01:51;28.33;;;14.60;;
9712;SDS011;4895;50.926;6.870;2023-02-13T00:04:17;30.27;;;14.70;;
9712;SDS011;4895;50.926;6.870;2023-02-13T00:06:42;29.43;;;14.73;;
9712;SDS011;4895;50.926;6.870;2023-02-13T00:09:07;26.30;;;14.20;;
9712;SDS011;4895;50.926;6.870;2023-02-13T00:11:35;26.27;;;14.27;;
9712;SDS011;4895;50.926;6.870;2023-02-13T00:14:00;30.90;;;14.93;;
9712;SDS011;4895;50.926;6.870;2023-02-13T00:16:26;29.70;;;15.53;;
9712;SDS011;4895;50.926;6.870;2023-02-13T00:18:51;28.67;;;14.93;;
9712;SDS011;4895;50.926;6.870;2023-02-13T00:21:16;31.20;;;15.20;;
9712;SDS011;4895;50.926;6.870;2023-02-13T00:23:41;30.23;;;14.27;;
9712;SDS011;4895;50.926;6.870;2023-02-13T00:26:08;30.43;;;15.50;;
9712;SDS011;4895;50.926;6.870;2023-02-13T00:28:36;27.40;;;14.33;;
9712;SDS011;4895;50.926;6.870;2023-02-13T00:31:03;32.30;;;15.77;;
9712;SDS011;4895;50.926;6.870;2023-02-13T00:33:30;31.70;;;15.13;;
9712;SDS011;4895;50.926;6.870;2023-02-13T00:36:03;26.20;;;14.60;;
9712;SDS011;4895;50.926;6.870;2023-02-13T00:38:29;28.47;;;14.50;;
9712;SDS011;4895;50.926;6.870;2023-02-13T00:40:55;25.40;;;13.37;;
9712;SDS011;4895;50.926;6.870;2023-02-13T00:43:20;29.27;;;15.27;;
9712;SDS011;4895;50.926;6.870;2023-02-13T00:45:46;27.70;;;14.00;;
9712;SDS011;4895;50.926;6.870;2023-02-13T00:48:11;34.03;;;14.50;;
9712;SDS011;4895;50.926;6.870;2023-02-13T00:50:36;26.40;;;13.53;;
9712;SDS011;4895;50.926;6.870;2023-02-13T00:53:01;27.83;;;15.00;;
9712;SDS011;4895;50.926;6.870;2023-02-13T00:55:27;24.90;;;13.47;;
9712;SDS011;4895;50.926;6.870;2023-02-13T00:57:52;27.10;;;14.13;;
9712;SDS011;4895;50.926;6.870;2023-02-13T01:00:17;25.40;;;13.67;;
9712;SDS011;4895;50.926;6.870;2023-02-13T01:02:43;25.73;;;13.27;;
9712;SDS011;4895;50.926;6.870;2023-02-13T01:05:08;27.50;;;13.50;;
9712;SDS011;4895;50.926;6.870;2023-02-13T01:07:33;21.77;;;11.70;;
9712;SDS011;4895;50.926;6.870;2023-02-13T01:09:59;26.40;;;13.27;;
9712;SDS011;4895;50.926;6.870;2023-02-13T01:12:24;26.27;;;13.53;;
9712;SDS011;4895;50.926;6.870;2023-02-13T01:14:49;26.03;;;14.40;;
9712;SDS011;4895;50.926;6.870;2023-02-13T01:17:15;25.00;;;13.63;;
9712;SDS011;4895;50.926;6.870;2023-02-13T01:19:40;24.00;;;13.40;;
9712;SDS011;4895;50.926;6.870;2023-02-13T01:22:06;23.17;;;13.23;;
9712;SDS011;4895;50.926;6.870;2023-02-13T01:24:32;23.77;;;13.07;;
9712;SDS011;4895;50.926;6.870;2023-02-13T01:26:58;23.60;;;13.13;;
9712;SDS011;4895;50.926;6.870;2023-02-13T01:29:23;27.50;;;12.50;;
9712;SDS011;4895;50.926;6.870;2023-02-13T01:31:48;23.60;;;12.33;;
9712;SDS011;4895;50.926;6.870;2023-02-13T01:34:14;23.80;;;12.93;;
9712;SDS011;4895;50.926;6.870;2023-02-13T01:36:39;23.57;;;12.60;;
9712;SDS011;4895;50.926;6.870;2023-02-13T01:39:04;22.70;;;12.70;;
9712;SDS011;4895;50.926;6.870;2023-02-13T01:41:29;19.50;;;11.07;;
9712;SDS011;4895;50.926;6.870;2023-02-13T01:43:56;20.03;;;11.80;;
9712;SDS011;4895;50.926;6.870;2023-02-13T01:48:58;20.77;;;11.33;;
9712;SDS011;4895;50.926;6.870;2023-02-13T01:51:29;19.93;;;11.33;;
9712;SDS011;4895;50.926;6.870;2023-02-13T01:54:05;21.90;;;12.20;;
9712;SDS011;4895;50.926;6.870;2023-02-13T01:56:43;19.03;;;10.80;;
9712;SDS011;4895;50.926;6.870;2023-02-13T01:59:12;19.43;;;11.43;;
9712;SDS011;4895;50.926;6.870;2023-02-13T02:01:40;19.43;;;12.20;;
9712;SDS011;4895;50.926;6.870;2023-02-13T02:04:13;20.53;;;11.87;;
9712;SDS011;4895;50.926;6.870;2023-02-13T02:06:41;19.20;;;11.30;;
9712;SDS011;4895;50.926;6.870;2023-02-13T02:09:11;19.70;;;11.67;;
9712;SDS011;4895;50.926;6.870;2023-02-13T02:11:52;20.60;;;11.53;;
9712;SDS011;4895;50.926;6.870;2023-02-13T02:14:19;22.27;;;11.77;;
9712;SDS011;4895;50.926;6.870;2023-02-13T02:16:44;20.03;;;11.30;;
9712;SDS011;4895;50.926;6.870;2023-02-13T02:19:13;19.60;;;10.70;;
9712;SDS011;4895;50.926;6.870;2023-02-13T02:27:29;22.03;;;11.83;;
9712;SDS011;4895;50.926;6.870;2023-02-13T02:38:16;21.20;;;12.57;;
9712;SDS011;4895;50.926;6.870;2023-02-13T02:43:36;17.77;;;11.50;;
9712;SDS011;4895;50.926;6.870;2023-02-13T02:46:11;20.97;;;12.37;;
9712;SDS011;4895;50.926;6.870;2023-02-13T02:48:52;22.10;;;12.83;;
9712;SDS011;4895;50.926;6.870;2023-02-13T02:54:08;19.23;;;12.03;;
9712;SDS011;4895;50.926;6.870;2023-02-13T02:56:57;22.00;;;13.10;;
9712;SDS011;4895;50.926;6.870;2023-02-13T02:59:25;21.63;;;12.27;;
9712;SDS011;4895;50.926;6.870;2023-02-13T03:02:10;20.07;;;10.77;;
9712;SDS011;4895;50.926;6.870;2023-02-13T03:05:08;24.67;;;13.57;;
9712;SDS011;4895;50.926;6.870;2023-02-13T03:08:00;19.70;;;11.40;;
9712;SDS011;4895;50.926;6.870;2023-02-13T03:10:27;22.57;;;12.33;;
9712;SDS011;4895;50.926;6.870;2023-02-13T03:13:15;21.23;;;11.87;;
9712;SDS011;4895;50.926;6.870;2023-02-13T03:15:45;21.10;;;12.43;;
9712;SDS011;4895;50.926;6.870;2023-02-13T03:18:31;18.90;;;12.37;;
9712;SDS011;4895;50.926;6.870;2023-02-13T03:24:30;22.20;;;12.93;;
9712;SDS011;4895;50.926;6.870;2023-02-13T03:30:16;23.87;;;12.73;;
9712;SDS011;4895;50.926;6.870;2023-02-13T03:35:29;21.73;;;13.03;;
9712;SDS011;4895;50.926;6.870;2023-02-13T03:38:27;23.33;;;13.10;;
9712;SDS011;4895;50.926;6.870;2023-02-13T03:46:31;26.43;;;13.93;;
9712;SDS011;4895;50.926;6.870;2023-02-13T03:49:00;22.83;;;13.70;;
9712;SDS011;4895;50.926;6.870;2023-02-13T03:54:22;24.80;;;14.67;;
9712;SDS011;4895;50.926;6.870;2023-02-13T03:57:09;23.70;;;13.73;;
9712;SDS011;4895;50.926;6.870;2023-02-13T03:59:54;26.43;;;15.00;;
9712;SDS011;4895;50.926;6.870;2023-02-13T04:02:24;23.17;;;14.60;;
9712;SDS011;4895;50.926;6.870;2023-02-13T04:05:14;25.80;;;14.70;;
9712;SDS011;4895;50.926;6.870;2023-02-13T04:07:40;22.00;;;12.53;;
9712;SDS011;4895;50.926;6.870;2023-02-13T04:10:06;24.83;;;13.87;;
9712;SDS011;4895;50.926;6.870;2023-02-13T04:12:36;23.20;;;14.37;;
9712;SDS011;4895;50.926;6.870;2023-02-13T04:17:47;23.73;;;15.30;;
9712;SDS011;4895;50.926;6.870;2023-02-13T04:20:19;24.73;;;13.73;;
9712;SDS011;4895;50.926;6.870;2023-02-13T04:22:45;23.73;;;15.27;;
9712;SDS011;4895;50.926;6.870;2023-02-13T04:25:11;22.10;;;14.63;;
9712;SDS011;4895;50.926;6.870;2023-02-13T04:27:38;25.27;;;15.60;;
9712;SDS011;4895;50.926;6.870;2023-02-13T04:30:04;23.50;;;14.23;;
9712;SDS011;4895;50.926;6.870;2023-02-13T04:32:30;27.07;;;15.50;;
9712;SDS011;4895;50.926;6.870;2023-02-13T04:34:55;26.40;;;15.10;;
9712;SDS011;4895;50.926;6.870;2023-02-13T04:37:20;25.03;;;16.27;;
9712;SDS011;4895;50.926;6.870;2023-02-13T04:39:45;24.53;;;15.67;;
9712;SDS011;4895;50.926;6.870;2023-02-13T04:42:11;25.57;;;16.50;;
9712;SDS011;4895;50.926;6.870;2023-02-13T04:44:36;27.43;;;16.30;;
9712;SDS011;4895;50.926;6.870;2023-02-13T04:47:01;24.30;;;14.90;;
9712;SDS011;4895;50.926;6.870;2023-02-13T04:49:26;27.60;;;16.97;;
9712;SDS011;4895;50.926;6.870;2023-02-13T04:51:52;27.83;;;16.87;;
9712;SDS011;4895;50.926;6.870;2023-02-13T04:54:17;28.57;;;17.30;;
9712;SDS011;4895;50.926;6.870;2023-02-13T04:56:42;27.10;;;16.93;;
9712;SDS011;4895;50.926;6.870;2023-02-13T04:59:07;29.27;;;17.03;;
9712;SDS011;4895;50.926;6.870;2023-02-13T05:01:33;32.77;;;16.80;;
9712;SDS011;4895;50.926;6.870;2023-02-13T05:03:58;29.63;;;16.60;;
9712;SDS011;4895;50.926;6.870;2023-02-13T05:06:23;28.90;;;17.10;;
9712;SDS011;4895;50.926;6.870;2023-02-13T05:08:48;26.40;;;15.90;;
9712;SDS011;4895;50.926;6.870;2023-02-13T05:11:14;26.97;;;15.60;;
9712;SDS011;4895;50.926;6.870;2023-02-13T05:13:39;27.90;;;15.70;;
9712;SDS011;4895;50.926;6.870;2023-02-13T05:16:04;26.87;;;16.73;;
9712;SDS011;4895;50.926;6.870;2023-02-13T05:18:30;28.47;;;16.93;;
9712;SDS011;4895;50.926;6.870;2023-02-13T05:20:55;27.43;;;16.40;;
9712;SDS011;4895;50.926;6.870;2023-02-13T05:23:39;30.20;;;16.77;;
9712;SDS011;4895;50.926;6.870;2023-02-13T05:26:04;28.77;;;16.17;;
9712;SDS011;4895;50.926;6.870;2023-02-13T05:28:30;28.53;;;16.60;;
9712;SDS011;4895;50.926;6.870;2023-02-13T05:31:14;26.60;;;15.03;;
9712;SDS011;4895;50.926;6.870;2023-02-13T05:33:39;31.17;;;17.53;;
9712;SDS011;4895;50.926;6.870;2023-02-13T05:36:04;30.00;;;16.90;;
9712;SDS011;4895;50.926;6.870;2023-02-13T05:38:30;29.80;;;16.37;;
9712;SDS011;4895;50.926;6.870;2023-02-13T05:40:57;31.03;;;17.10;;
9712;SDS011;4895;50.926;6.870;2023-02-13T05:43:23;30.67;;;16.93;;
9712;SDS011;4895;50.926;6.870;2023-02-13T05:45:48;29.03;;;17.80;;
9712;SDS011;4895;50.926;6.870;2023-02-13T05:48:16;31.10;;;16.70;;
9712;SDS011;4895;50.926;6.870;2023-02-13T05:50:41;27.37;;;15.90;;
9712;SDS011;4895;50.926;6.870;2023-02-13T05:53:06;30.80;;;16.50;;
9712;SDS011;4895;50.926;6.870;2023-02-13T05:55:31;29.40;;;17.43;;
9712;SDS011;4895;50.926;6.870;2023-02-13T05:57:57;30.70;;;16.17;;
9712;SDS011;4895;50.926;6.870;2023-02-13T06:00:22;32.57;;;17.53;;
9712;SDS011;4895;50.926;6.870;2023-02-13T06:02:48;29.53;;;16.30;;
9712;SDS011;4895;50.926;6.870;2023-02-13T06:05:13;25.77;;;16.07;;
9712;SDS011;4895;50.926;6.870;2023-02-13T06:07:38;31.67;;;17.70;;
9712;SDS011;4895;50.926;6.870;2023-02-13T06:10:04;29.20;;;16.53;;
9712;SDS011;4895;50.926;6.870;2023-02-13T06:12:29;37.90;;;17.00;;
9712;SDS011;4895;50.926;6.870;2023-02-13T06:14:55;29.90;;;16.57;;
9712;SDS011;4895;50.926;6.870;2023-02-13T06:17:20;29.17;;;15.60;;
9712;SDS011;4895;50.926;6.870;2023-02-13T06:19:45;29.47;;;16.30;;
9712;SDS011;4895;50.926;6.870;2023-02-13T06:22:10;30.37;;;14.97;;
9712;SDS011;4895;50.926;6.870;2023-02-13T06:24:36;26.13;;;15.20;;
9712;SDS011;4895;50.926;6.870;2023-02-13T06:27:01;28.90;;;15.73;;
9712;SDS011;4895;50.926;6.870;2023-02-13T06:29:26;27.57;;;16.00;;
9712;SDS011;4895;50.926;6.870;2023-02-13T06:31:51;29.43;;;15.30;;
9712;SDS011;4895;50.926;6.870;2023-02-13T06:34:17;28.07;;;16.10;;
9712;SDS011;4895;50.926;6.870;2023-02-13T06:36:42;28.67;;;15.90;;
9712;SDS011;4895;50.926;6.870;2023-02-13T06:39:08;29.70;;;16.33;;
9712;SDS011;4895;50.926;6.870;2023-02-13T06:41:34;26.90;;;15.63;;
9712;SDS011;4895;50.926;6.870;2023-02-13T06:43:59;25.10;;;14.90;;
9712;SDS011;4895;50.926;6.870;2023-02-13T06:46:25;26.33;;;15.37;;
9712;SDS011;4895;50.926;6.870;2023-02-13T06:48:50;26.73;;;15.87;;
9712;SDS011;4895;50.926;6.870;2023-02-13T06:51:15;22.57;;;14.23;;
9712;SDS011;4895;50.926;6.870;2023-02-13T06:53:40;25.43;;;14.77;;
9712;SDS011;4895;50.926;6.870;2023-02-13T06:56:06;23.03;;;14.30;;
9712;SDS011;4895;50.926;6.870;2023-02-13T06:58:31;28.13;;;15.00;;
9712;SDS011;4895;50.926;6.870;2023-02-13T07:00:57;24.30;;;14.80;;
9712;SDS011;4895;50.926;6.870;2023-02-13T07:03:23;27.70;;;16.00;;
9712;SDS011;4895;50.926;6.870;2023-02-13T07:05:48;27.03;;;15.30;;
9712;SDS011;4895;50.926;6.870;2023-02-13T07:08:15;27.40;;;14.33;;
9712;SDS011;4895;50.926;6.870;2023-02-13T07:10:41;26.83;;;16.37;;
9712;SDS011;4895;50.926;6.870;2023-02-13T07:13:07;28.47;;;15.73;;
9712;SDS011;4895;50.926;6.870;2023-02-13T07:15:33;26.20;;;14.60;;
9712;SDS011;4895;50.926;6.870;2023-02-13T07:17:59;26.30;;;15.40;;
9712;SDS011;4895;50.926;6.870;2023-02-13T07:20:25;26.23;;;15.00;;
9712;SDS011;4895;50.926;6.870;2023-02-13T07:22:50;24.93;;;14.33;;
9712;SDS011;4895;50.926;6.870;2023-02-13T07:25:16;23.93;;;14.03;;
9712;SDS011;4895;50.926;6.870;2023-02-13T07:27:41;24.40;;;15.23;;
9712;SDS011;4895;50.926;6.870;2023-02-13T07:30:07;25.57;;;15.00;;
9712;SDS011;4895;50.926;6.870;2023-02-13T07:32:33;22.93;;;14.43;;
9712;SDS011;4895;50.926;6.870;2023-02-13T07:34:58;25.70;;;14.80;;
9712;SDS011;4895;50.926;6.870;2023-02-13T07:37:23;26.03;;;15.60;;
9712;SDS011;4895;50.926;6.870;2023-02-13T07:39:48;24.30;;;13.87;;
9712;SDS011;4895;50.926;6.870;2023-02-13T07:42:14;29.10;;;15.40;;
9712;SDS011;4895;50.926;6.870;2023-02-13T07:44:39;26.20;;;15.33;;
9712;SDS011;4895;50.926;6.870;2023-02-13T07:47:04;23.57;;;14.87;;
9712;SDS011;4895;50.926;6.870;2023-02-13T07:49:30;31.83;;;14.90;;
9712;SDS011;4895;50.926;6.870;2023-02-13T07:51:55;27.53;;;14.80;;
9712;SDS011;4895;50.926;6.870;2023-02-13T07:54:22;25.17;;;14.10;;
9712;SDS011;4895;50.926;6.870;2023-02-13T07:56:48;23.97;;;14.50;;
9712;SDS011;4895;50.926;6.870;2023-02-13T07:59:13;25.30;;;15.10;;
9712;SDS011;4895;50.926;6.870;2023-02-13T08:01:38;26.03;;;14.57;;
9712;SDS011;4895;50.926;6.870;2023-02-13T08:04:03;27.90;;;15.37;;
9712;SDS011;4895;50.926;6.870;2023-02-13T08:06:29;23.27;;;14.53;;
9712;SDS011;4895;50.926;6.870;2023-02-13T08:08:54;23.50;;;13.90;;
9712;SDS011;4895;50.926;6.870;2023-02-13T08:11:39;28.57;;;16.07;;
9712;SDS011;4895;50.926;6.870;2023-02-13T08:14:20;26.20;;;14.70;;
9712;SDS011;4895;50.926;6.870;2023-02-13T08:16:46;25.90;;;15.60;;
9712;SDS011;4895;50.926;6.870;2023-02-13T08:19:12;23.40;;;14.70;;
9712;SDS011;4895;50.926;6.870;2023-02-13T08:21:37;25.53;;;14.60;;
9712;SDS011;4895;50.926;6.870;2023-02-13T08:24:04;24.10;;;13.97;;
9712;SDS011;4895;50.926;6.870;2023-02-13T08:26:30;20.97;;;14.27;;
9712;SDS011;4895;50.926;6.870;2023-02-13T08:28:55;26.33;;;15.40;;
9712;SDS011;4895;50.926;6.870;2023-02-13T08:31:21;24.00;;;13.90;;
9712;SDS011;4895;50.926;6.870;2023-02-13T08:33:46;23.80;;;14.87;;
9712;SDS011;4895;50.926;6.870;2023-02-13T08:36:11;24.27;;;13.03;;
9712;SDS011;4895;50.926;6.870;2023-02-13T08:38:37;22.00;;;13.63;;
9712;SDS011;4895;50.926;6.870;2023-02-13T08:41:02;19.70;;;12.97;;
9712;SDS011;4895;50.926;6.870;2023-02-13T08:43:27;23.03;;;12.60;;
9712;SDS011;4895;50.926;6.870;2023-02-13T08:45:52;25.07;;;13.37;;
9712;SDS011;4895;50.926;6.870;2023-02-13T08:48:18;21.27;;;12.70;;
9712;SDS011;4895;50.926;6.870;2023-02-13T08:50:43;25.30;;;13.33;;
9712;SDS011;4895;50.926;6.870;2023-02-13T08:53:08;23.37;;;13.43;;
9712;SDS011;4895;50.926;6.870;2023-02-13T08:55:33;18.33;;;11.70;;
9712;SDS011;4895;50.926;6.870;2023-02-13T08:58:02;20.30;;;12.67;;
9712;SDS011;4895;50.926;6.870;2023-02-13T09:00:28;20.77;;;12.70;;
9712;SDS011;4895;50.926;6.870;2023-02-13T09:02:54;24.17;;;13.50;;
9712;SDS011;4895;50.926;6.870;2023-02-13T09:05:19;24.10;;;12.10;;
9712;SDS011;4895;50.926;6.870;2023-02-13T09:07:45;21.93;;;12.23;;
9712;SDS011;4895;50.926;6.870;2023-02-13T09:10:10;19.80;;;12.43;;
9712;SDS011;4895;50.926;6.870;2023-02-13T09:12:36;18.73;;;11.57;;
9712;SDS011;4895;50.926;6.870;2023-02-13T09:15:01;20.00;;;12.93;;
9712;SDS011;4895;50.926;6.870;2023-02-13T09:17:26;19.37;;;12.10;;
9712;SDS011;4895;50.926;6.870;2023-02-13T09:19:51;21.37;;;12.10;;
9712;SDS011;4895;50.926;6.870;2023-02-13T09:22:17;22.40;;;11.90;;
9712;SDS011;4895;50.926;6.870;2023-02-13T09:24:42;18.87;;;11.17;;
9712;SDS011;4895;50.926;6.870;2023-02-13T09:27:07;20.70;;;11.47;;
9712;SDS011;4895;50.926;6.870;2023-02-13T09:29:33;21.93;;;13.17;;
9712;SDS011;4895;50.926;6.870;2023-02-13T09:31:58;19.00;;;12.03;;
9712;SDS011;4895;50.926;6.870;2023-02-13T09:34:24;20.40;;;12.80;;
9712;SDS011;4895;50.926;6.870;2023-02-13T09:36:52;19.00;;;11.23;;
9712;SDS011;4895;50.926;6.870;2023-02-13T09:39:18;18.60;;;11.20;;
9712;SDS011;4895;50.926;6.870;2023-02-13T09:41:43;18.00;;;11.50;;
9712;SDS011;4895;50.926;6.870;2023-02-13T09:44:11;21.43;;;11.70;;
9712;SDS011;4895;50.926;6.870;2023-02-13T09:46:57;15.13;;;10.70;;
9712;SDS011;4895;50.926;6.870;2023-02-13T09:49:25;19.03;;;11.83;;
9712;SDS011;4895;50.926;6.870;2023-02-13T09:51:55;18.90;;;12.17;;
9712;SDS011;4895;50.926;6.870;2023-02-13T09:54:21;19.33;;;11.63;;
9712;SDS011;4895;50.926;6.870;2023-02-13T09:57:00;19.20;;;11.80;;
9712;SDS011;4895;50.926;6.870;2023-02-13T09:59:32;17.43;;;11.73;;
9712;SDS011;4895;50.926;6.870;2023-02-13T10:02:21;18.13;;;11.67;;
9712;SDS011;4895;50.926;6.870;2023-02-13T10:07:19;18.57;;;11.37;;
9712;SDS011;4895;50.926;6.870;2023-02-13T10:14:44;19.70;;;11.70;;
9712;SDS011;4895;50.926;6.870;2023-02-13T10:17:27;16.37;;;10.83;;
9712;SDS011;4895;50.926;6.870;2023-02-13T10:19:58;16.73;;;10.80;;
9712;SDS011;4895;50.926;6.870;2023-02-13T10:25:10;17.03;;;11.37;;
9712;SDS011;4895;50.926;6.870;2023-02-13T10:27:39;17.70;;;10.97;;
9712;SDS011;4895;50.926;6.870;2023-02-13T10:35:47;24.13;;;10.90;;
9712;SDS011;4895;50.926;6.870;2023-02-13T10:38:17;14.73;;;9.43;;
9712;SDS011;4895;50.926;6.870;2023-02-13T10:40:59;14.90;;;9.87;;
9712;SDS011;4895;50.926;6.870;2023-02-13T10:43:29;15.00;;;9.30;;
9712;SDS011;4895;50.926;6.870;2023-02-13T10:46:21;15.93;;;10.70;;
9712;SDS011;4895;50.926;6.870;2023-02-13T10:51:54;14.60;;;9.53;;
9712;SDS011;4895;50.926;6.870;2023-02-13T10:57:24;18.30;;;10.47;;
9712;SDS011;4895;50.926;6.870;2023-02-13T11:02:35;16.37;;;9.30;;
9712;SDS011;4895;50.926;6.870;2023-02-13T11:05:17;16.07;;;10.50;;
9712;SDS011;4895;50.926;6.870;2023-02-13T11:07:45;20.13;;;9.20;;
9712;SDS011;4895;50.926;6.870;2023-02-13T11:10:16;16.43;;;8.97;;
9712;SDS011;4895;50.926;6.870;2023-02-13T11:12:46;14.70;;;9.23;;
9712;SDS011;4895;50.926;6.870;2023-02-13T11:15:26;14.00;;;8.93;;
9712;SDS011;4895;50.926;6.870;2023-02-13T11:17:54;12.80;;;8.77;;
9712;SDS011;4895;50.926;6.870;2023-02-13T11:22:48;21.33;;;8.20;;
9712;SDS011;4895;50.926;6.870;2023-02-13T11:25:24;16.07;;;8.87;;
9712;SDS011;4895;50.926;6.870;2023-02-13T11:27:52;17.27;;;9.70;;
9712;SDS011;4895;50.926;6.870;2023-02-13T11:30:30;15.57;;;8.93;;
9712;SDS011;4895;50.926;6.870;2023-02-13T11:33:03;11.83;;;7.60;;
9712;SDS011;4895;50.926;6.870;2023-02-13T11:35:47;12.30;;;8.30;;
9712;SDS011;4895;50.926;6.870;2023-02-13T11:40:42;14.63;;;7.83;;
9712;SDS011;4895;50.926;6.870;2023-02-13T11:43:16;11.77;;;7.67;;
9712;SDS011;4895;50.926;6.870;2023-02-13T11:45:44;15.27;;;7.93;;
9712;SDS011;4895;50.926;6.870;2023-02-13T11:48:16;13.17;;;7.27;;
9712;SDS011;4895;50.926;6.870;2023-02-13T11:50:49;14.77;;;8.33;;
9712;SDS011;4895;50.926;6.870;2023-02-13T11:53:20;9.77;;;5.63;;
9712;SDS011;4895;50.926;6.870;2023-02-13T11:58:44;12.30;;;7.50;;
9712;SDS011;4895;50.926;6.870;2023-02-13T12:03:43;10.40;;;6.87;;
9712;SDS011;4895;50.926;6.870;2023-02-13T12:06:40;12.93;;;7.03;;
9712;SDS011;4895;50.926;6.870;2023-02-13T12:09:13;10.63;;;7.30;;
9712;SDS011;4895;50.926;6.870;2023-02-13T12:11:48;12.07;;;6.83;;
9712;SDS011;4895;50.926;6.870;2023-02-13T12:14:17;10.20;;;6.80;;
9712;SDS011;4895;50.926;6.870;2023-02-13T12:19:34;10.50;;;7.07;;
9712;SDS011;4895;50.926;6.870;2023-02-13T12:30:54;12.50;;;7.50;;
9712;SDS011;4895;50.926;6.870;2023-02-13T12:33:40;9.13;;;5.83;;
9712;SDS011;4895;50.926;6.870;2023-02-13T12:42:20;12.03;;;6.40;;
9712;SDS011;4895;50.926;6.870;2023-02-13T12:55:26;10.50;;;6.47;;
9712;SDS011;4895;50.926;6.870;2023-02-13T13:06:02;10.10;;;6.83;;
9712;SDS011;4895;50.926;6.870;2023-02-13T13:27:40;10.73;;;5.80;;
9712;SDS011;4895;50.926;6.870;2023-02-13T13:33:04;7.83;;;5.20;;
9712;SDS011;4895;50.926;6.870;2023-02-13T13:35:34;7.83;;;4.90;;
9712;SDS011;4895;50.926;6.870;2023-02-13T13:38:04;8.10;;;4.23;;
9712;SDS011;4895;50.926;6.870;2023-02-13T13:40:41;9.03;;;5.13;;
9712;SDS011;4895;50.926;6.870;2023-02-13T13:49:15;7.60;;;3.37;;
9712;SDS011;4895;50.926;6.870;2023-02-13T13:51:42;7.30;;;4.43;;
9712;SDS011;4895;50.926;6.870;2023-02-13T13:59:17;6.77;;;3.53;;
9712;SDS011;4895;50.926;6.870;2023-02-13T14:01:43;6.33;;;4.00;;
9712;SDS011;4895;50.926;6.870;2023-02-13T14:04:35;5.83;;;4.10;;
9712;SDS011;4895;50.926;6.870;2023-02-13T14:11:53;4.70;;;3.30;;
9712;SDS011;4895;50.926;6.870;2023-02-13T14:16:57;6.10;;;3.40;;
9712;SDS011;4895;50.926;6.870;2023-02-13T14:19:38;5.27;;;3.00;;
9712;SDS011;4895;50.926;6.870;2023-02-13T14:24:55;5.40;;;2.80;;
9712;SDS011;4895;50.926;6.870;2023-02-13T14:27:42;4.80;;;2.47;;
9712;SDS011;4895;50.926;6.870;2023-02-13T14:30:49;5.37;;;2.40;;
9712;SDS011;4895;50.926;6.870;2023-02-13T14:32:59;2.93;;;1.93;;
9712;SDS011;4895;50.926;6.870;2023-02-13T14:35:31;3.63;;;2.07;;
9712;SDS011;4895;50.926;6.870;2023-02-13T14:37:59;3.10;;;2.07;;
9712;SDS011;4895;50.926;6.870;2023-02-13T14:51:31;4.10;;;2.20;;
9712;SDS011;4895;50.926;6.870;2023-02-13T14:54:03;4.20;;;2.17;;
9712;SDS011;4895;50.926;6.870;2023-02-13T14:56:30;5.57;;;2.33;;
9712;SDS011;4895;50.926;6.870;2023-02-13T14:59:00;3.17;;;2.13;;
9712;SDS011;4895;50.926;6.870;2023-02-13T15:01:32;3.90;;;2.10;;
9712;SDS011;4895;50.926;6.870;2023-02-13T15:04:04;3.10;;;2.20;;
9712;SDS011;4895;50.926;6.870;2023-02-13T15:06:36;8.63;;;2.37;;
9712;SDS011;4895;50.926;6.870;2023-02-13T15:09:11;3.70;;;2.13;;
9712;SDS011;4895;50.926;6.870;2023-02-13T15:11:42;3.37;;;2.03;;
9712;SDS011;4895;50.926;6.870;2023-02-13T15:17:00;6.00;;;2.10;;
9712;SDS011;4895;50.926;6.870;2023-02-13T15:19:36;3.30;;;2.20;;
9712;SDS011;4895;50.926;6.870;2023-02-13T15:22:06;4.70;;;2.20;;
9712;SDS011;4895;50.926;6.870;2023-02-13T15:24:44;2.87;;;1.90;;
9712;SDS011;4895;50.926;6.870;2023-02-13T15:27:13;3.27;;;2.07;;
9712;SDS011;4895;50.926;6.870;2023-02-13T15:29:52;3.57;;;2.10;;
9712;SDS011;4895;50.926;6.870;2023-02-13T15:32:23;2.97;;;2.03;;
9712;SDS011;4895;50.926;6.870;2023-02-13T15:34:51;2.70;;;2.10;;
9712;SDS011;4895;50.926;6.870;2023-02-13T15:37:24;6.50;;;2.20;;
9712;SDS011;4895;50.926;6.870;2023-02-13T15:39:52;4.50;;;2.10;;
9712;SDS011;4895;50.926;6.870;2023-02-13T15:42:17;4.73;;;2.47;;
9712;SDS011;4895;50.926;6.870;2023-02-13T15:44:43;3.83;;;2.37;;
9712;SDS011;4895;50.926;6.870;2023-02-13T15:47:15;4.40;;;2.60;;
9712;SDS011;4895;50.926;6.870;2023-02-13T15:49:42;4.87;;;2.33;;
9712;SDS011;4895;50.926;6.870;2023-02-13T15:54:54;4.93;;;2.47;;
9712;SDS011;4895;50.926;6.870;2023-02-13T15:57:20;3.80;;;2.23;;
9712;SDS011;4895;50.926;6.870;2023-02-13T15:59:47;3.07;;;2.33;;
9712;SDS011;4895;50.926;6.870;2023-02-13T16:02:17;6.60;;;2.73;;
9712;SDS011;4895;50.926;6.870;2023-02-13T16:04:45;6.77;;;2.40;;
9712;SDS011;4895;50.926;6.870;2023-02-13T16:07:12;4.00;;;2.50;;
9712;SDS011;4895;50.926;6.870;2023-02-13T16:09:38;5.83;;;2.53;;
9712;SDS011;4895;50.926;6.870;2023-02-13T16:14:55;4.10;;;2.43;;
9712;SDS011;4895;50.926;6.870;2023-02-13T16:17:36;10.50;;;2.97;;
9712;SDS011;4895;50.926;6.870;2023-02-13T16:20:04;4.03;;;2.63;;
9712;SDS011;4895;50.926;6.870;2023-02-13T16:22:49;4.80;;;2.50;;
9712;SDS011;4895;50.926;6.870;2023-02-13T16:25:20;4.17;;;2.83;;
9712;SDS011;4895;50.926;6.870;2023-02-13T16:27:58;3.53;;;2.60;;
9712;SDS011;4895;50.926;6.870;2023-02-13T16:40:53;4.97;;;3.07;;
9712;SDS011;4895;50.926;6.870;2023-02-13T16:48:39;5.10;;;3.00;;
9712;SDS011;4895;50.926;6.870;2023-02-13T16:51:05;4.20;;;2.90;;
9712;SDS011;4895;50.926;6.870;2023-02-13T16:53:30;4.57;;;3.23;;
9712;SDS011;4895;50.926;6.870;2023-02-13T16:55:57;6.07;;;3.17;;
9712;SDS011;4895;50.926;6.870;2023-02-13T16:58:24;9.30;;;3.57;;
9712;SDS011;4895;50.926;6.870;2023-02-13T17:00:49;5.53;;;3.23;;
9712;SDS011;4895;50.926;6.870;2023-02-13T17:03:15;6.07;;;3.57;;
9712;SDS011;4895;50.926;6.870;2023-02-13T17:05:40;4.50;;;3.13;;
9712;SDS011;4895;50.926;6.870;2023-02-13T17:08:06;5.93;;;3.20;;
9712;SDS011;4895;50.926;6.870;2023-02-13T17:10:32;6.97;;;3.70;;
9712;SDS011;4895;50.926;6.870;2023-02-13T17:13:00;5.90;;;3.93;;
9712;SDS011;4895;50.926;6.870;2023-02-13T17:15:27;11.43;;;4.60;;
9712;SDS011;4895;50.926;6.870;2023-02-13T17:17:53;8.07;;;3.77;;
9712;SDS011;4895;50.926;6.870;2023-02-13T17:20:24;5.33;;;3.43;;
9712;SDS011;4895;50.926;6.870;2023-02-13T17:22:57;6.30;;;3.90;;
9712;SDS011;4895;50.926;6.870;2023-02-13T17:25:25;6.30;;;3.90;;
9712;SDS011;4895;50.926;6.870;2023-02-13T17:27:59;7.23;;;4.10;;
9712;SDS011;4895;50.926;6.870;2023-02-13T17:30:30;6.40;;;3.50;;
9712;SDS011;4895;50.926;6.870;2023-02-13T17:33:01;7.83;;;3.37;;
9712;SDS011;4895;50.926;6.870;2023-02-13T17:35:28;11.87;;;3.90;;
9712;SDS011;4895;50.926;6.870;2023-02-13T17:37:54;6.43;;;4.23;;
9712;SDS011;4895;50.926;6.870;2023-02-13T17:40:20;7.80;;;4.20;;
9712;SDS011;4895;50.926;6.870;2023-02-13T17:42:47;6.40;;;3.77;;
9712;SDS011;4895;50.926;6.870;2023-02-13T17:45:15;10.03;;;3.90;;
9712;SDS011;4895;50.926;6.870;2023-02-13T17:47:41;12.07;;;4.77;;
9712;SDS011;4895;50.926;6.870;2023-02-13T17:50:07;10.80;;;4.63;;
9712;SDS011;4895;50.926;6.870;2023-02-13T17:52:32;7.47;;;5.00;;
9712;SDS011;4895;50.926;6.870;2023-02-13T17:54:57;7.17;;;4.30;;
9712;SDS011;4895;50.926;6.870;2023-02-13T17:57:23;8.33;;;3.73;;
9712;SDS011;4895;50.926;6.870;2023-02-13T17:59:48;6.40;;;3.97;;
9712;SDS011;4895;50.926;6.870;2023-02-13T18:02:15;10.43;;;4.30;;
9712;SDS011;4895;50.926;6.870;2023-02-13T18:04:42;7.30;;;4.30;;
9712;SDS011;4895;50.926;6.870;2023-02-13T18:07:09;8.53;;;4.80;;
9712;SDS011;4895;50.926;6.870;2023-02-13T18:09:37;8.83;;;3.97;;
9712;SDS011;4895;50.926;6.870;2023-02-13T18:12:03;7.93;;;5.00;;
9712;SDS011;4895;50.926;6.870;2023-02-13T18:14:29;7.67;;;4.70;;
9712;SDS011;4895;50.926;6.870;2023-02-13T18:16:55;10.90;;;4.80;;
9712;SDS011;4895;50.926;6.870;2023-02-13T18:19:20;6.03;;;4.00;;